Cenk Y — TCZV7 — position and weather

sailwx.info

Track history (hours):
 
Tides and Currents Weather Stations Pressure Air Temp Water Temp Dewpoint Dewpoint Depression Visibility Wind Speed Wind Dir Waves Ship Positions

Cenk Y

Last reported at 2015-May-23 21:20 UTC. Time now 2015-May-25 17:30 UTC.
Position N 31°16' E 032°19'.

Length 150 m; draft 5 m.

Type: Ship. MMSI: 271042575.

Date/timePositionNaut miles runAvg speedWind from/ knotsBaromVisibWave heightAir tempDewpointWater temp
2015-May-23 21:20N 31°16' E 032°19'5 7.0
2015-May-23 20:34N 31°21' E 032°22'3 2.7
2015-May-23 19:32N 31°21' E 032°19'0 0.0
2015-May-23 18:32N 31°21' E 032°19'0 0.0
2015-May-23 17:32N 31°21' E 032°19'0 0.0
2015-May-23 14:17N 31°21' E 032°19'0 0.0
2015-May-23 13:32N 31°21' E 032°19'0 0.0
2015-May-23 12:26N 31°21' E 032°19'0 0.0
2015-May-23 10:33N 31°22' E 032°19'99 7.9
2015-May-22 22:05N 32°48' E 033°16'7813.2
2015-May-22 16:10N 33°56' E 034°01'  
2015-May-18 16:15N 34°19' E 034°24'1014.2
2015-May-18 15:34N 34°11' E 034°18'1414.1
2015-May-18 14:34N 33°59' E 034°09'1413.7
2015-May-18 13:33N 33°47' E 034°01'4013.4
2015-May-18 10:33N 33°11' E 033°38'1413.1
2015-May-18 09:30N 32°59' E 033°30'1313.2
2015-May-18 08:31N 32°48' E 033°23'1313.3
2015-May-18 07:33N 32°37' E 033°15'  
Track history (hours):
 
Tides and Currents Weather Stations Pressure Air Temp Water Temp Dewpoint Dewpoint Depression Visibility Wind Speed Wind Dir Waves Ship Positions

Cenk Y

Last reported at 2015-May-23 21:20 UTC. Time now 2015-May-25 17:30 UTC.
Position N 31°16' E 032°19'.

Length 150 m; draft 5 m.

Type: Ship. MMSI: 271042575.

Date/timePositionNaut miles runAvg speedWind from/ knotsBaromVisibWave heightAir tempDewpointWater temp
2015-May-23 21:20N 31°16' E 032°19'5 7.0
2015-May-23 20:34N 31°21' E 032°22'3 2.7
2015-May-23 19:32N 31°21' E 032°19'0 0.0
2015-May-23 18:32N 31°21' E 032°19'0 0.0
2015-May-23 17:32N 31°21' E 032°19'0 0.0
2015-May-23 14:17N 31°21' E 032°19'0 0.0
2015-May-23 13:32N 31°21' E 032°19'0 0.0
2015-May-23 12:26N 31°21' E 032°19'0 0.0
2015-May-23 10:33N 31°22' E 032°19'99 7.9
2015-May-22 22:05N 32°48' E 033°16'7813.2
2015-May-22 16:10N 33°56' E 034°01'  
2015-May-18 16:15N 34°19' E 034°24'1014.2
2015-May-18 15:34N 34°11' E 034°18'1414.1
2015-May-18 14:34N 33°59' E 034°09'1413.7
2015-May-18 13:33N 33°47' E 034°01'4013.4
2015-May-18 10:33N 33°11' E 033°38'1413.1
2015-May-18 09:30N 32°59' E 033°30'1313.2
2015-May-18 08:31N 32°48' E 033°23'1313.3
2015-May-18 07:33N 32°37' E 033°15'  

Dump ship's entire track history